sensor_id;sensor_type;location;lat;lon;timestamp;P1;durP1;ratioP1;P2;durP2;ratioP2
9783;SDS011;4931;44.874;-1.092;2023-02-01T00:02:14;61.67;;;31.77;;
9783;SDS011;4931;44.874;-1.092;2023-02-01T00:04:40;47.70;;;28.63;;
9783;SDS011;4931;44.874;-1.092;2023-02-01T00:07:05;51.22;;;29.92;;
9783;SDS011;4931;44.874;-1.092;2023-02-01T00:09:31;47.67;;;27.67;;
9783;SDS011;4931;44.874;-1.092;2023-02-01T00:11:57;56.58;;;30.85;;
9783;SDS011;4931;44.874;-1.092;2023-02-01T00:14:24;72.68;;;36.65;;
9783;SDS011;4931;44.874;-1.092;2023-02-01T00:16:50;62.08;;;34.45;;
9783;SDS011;4931;44.874;-1.092;2023-02-01T00:19:15;59.40;;;33.50;;
9783;SDS011;4931;44.874;-1.092;2023-02-01T00:21:41;62.65;;;33.42;;
9783;SDS011;4931;44.874;-1.092;2023-02-01T00:24:07;62.30;;;30.17;;
9783;SDS011;4931;44.874;-1.092;2023-02-01T00:26:36;57.40;;;29.15;;
9783;SDS011;4931;44.874;-1.092;2023-02-01T00:29:04;56.85;;;30.60;;
9783;SDS011;4931;44.874;-1.092;2023-02-01T00:31:31;65.90;;;32.67;;
9783;SDS011;4931;44.874;-1.092;2023-02-01T00:33:57;63.20;;;32.92;;
9783;SDS011;4931;44.874;-1.092;2023-02-01T00:36:23;67.57;;;32.10;;
9783;SDS011;4931;44.874;-1.092;2023-02-01T00:38:48;102.72;;;40.72;;
9783;SDS011;4931;44.874;-1.092;2023-02-01T00:41:18;130.55;;;45.92;;
9783;SDS011;4931;44.874;-1.092;2023-02-01T00:43:44;113.70;;;43.38;;
9783;SDS011;4931;44.874;-1.092;2023-02-01T00:46:11;112.32;;;42.45;;
9783;SDS011;4931;44.874;-1.092;2023-02-01T00:48:38;228.82;;;74.30;;
9783;SDS011;4931;44.874;-1.092;2023-02-01T00:51:11;179.88;;;59.78;;
9783;SDS011;4931;44.874;-1.092;2023-02-01T00:53:40;192.55;;;64.00;;
9783;SDS011;4931;44.874;-1.092;2023-02-01T00:56:06;219.63;;;67.75;;
9783;SDS011;4931;44.874;-1.092;2023-02-01T00:58:32;186.77;;;61.15;;
9783;SDS011;4931;44.874;-1.092;2023-02-01T01:03:42;71.40;;;33.40;;
9783;SDS011;4931;44.874;-1.092;2023-02-01T01:06:14;64.75;;;31.92;;
9783;SDS011;4931;44.874;-1.092;2023-02-01T01:08:40;40.63;;;22.08;;
9783;SDS011;4931;44.874;-1.092;2023-02-01T01:11:11;45.15;;;25.13;;
9783;SDS011;4931;44.874;-1.092;2023-02-01T01:16:24;31.23;;;17.70;;
9783;SDS011;4931;44.874;-1.092;2023-02-01T01:18:52;32.13;;;17.70;;
9783;SDS011;4931;44.874;-1.092;2023-02-01T01:21:18;30.88;;;16.85;;
9783;SDS011;4931;44.874;-1.092;2023-02-01T01:23:44;30.23;;;18.45;;
9783;SDS011;4931;44.874;-1.092;2023-02-01T01:26:15;50.50;;;23.55;;
9783;SDS011;4931;44.874;-1.092;2023-02-01T01:28:51;51.20;;;24.58;;
9783;SDS011;4931;44.874;-1.092;2023-02-01T01:31:18;56.80;;;26.00;;
9783;SDS011;4931;44.874;-1.092;2023-02-01T01:33:47;176.18;;;49.90;;
9783;SDS011;4931;44.874;-1.092;2023-02-01T01:36:14;322.63;;;82.45;;
9783;SDS011;4931;44.874;-1.092;2023-02-01T01:38:39;270.15;;;70.80;;
9783;SDS011;4931;44.874;-1.092;2023-02-01T01:41:06;132.02;;;39.78;;
9783;SDS011;4931;44.874;-1.092;2023-02-01T01:46:38;108.28;;;45.30;;
9783;SDS011;4931;44.874;-1.092;2023-02-01T01:49:19;86.32;;;35.92;;
9783;SDS011;4931;44.874;-1.092;2023-02-01T01:54:29;84.05;;;32.10;;
9783;SDS011;4931;44.874;-1.092;2023-02-01T01:57:04;65.95;;;27.83;;
9783;SDS011;4931;44.874;-1.092;2023-02-01T01:59:37;108.75;;;37.55;;
9783;SDS011;4931;44.874;-1.092;2023-02-01T02:02:05;148.20;;;46.28;;
9783;SDS011;4931;44.874;-1.092;2023-02-01T02:04:32;116.15;;;39.92;;
9783;SDS011;4931;44.874;-1.092;2023-02-01T02:07:00;112.35;;;40.30;;
9783;SDS011;4931;44.874;-1.092;2023-02-01T02:09:30;118.57;;;41.03;;
9783;SDS011;4931;44.874;-1.092;2023-02-01T02:11:56;197.88;;;58.40;;
9783;SDS011;4931;44.874;-1.092;2023-02-01T02:14:22;233.23;;;67.90;;
9783;SDS011;4931;44.874;-1.092;2023-02-01T02:17:00;202.07;;;59.97;;
9783;SDS011;4931;44.874;-1.092;2023-02-01T02:19:35;151.05;;;47.08;;
9783;SDS011;4931;44.874;-1.092;2023-02-01T02:22:14;125.35;;;41.13;;
9783;SDS011;4931;44.874;-1.092;2023-02-01T02:37:03;84.63;;;32.42;;
9783;SDS011;4931;44.874;-1.092;2023-02-01T02:50:28;73.60;;;29.80;;
9783;SDS011;4931;44.874;-1.092;2023-02-01T02:56:36;103.20;;;38.78;;
9783;SDS011;4931;44.874;-1.092;2023-02-01T02:59:22;86.53;;;32.50;;
9783;SDS011;4931;44.874;-1.092;2023-02-01T03:02:09;65.05;;;28.65;;
9783;SDS011;4931;44.874;-1.092;2023-02-01T03:04:54;59.15;;;26.00;;
9783;SDS011;4931;44.874;-1.092;2023-02-01T03:13:02;56.25;;;25.25;;
9783;SDS011;4931;44.874;-1.092;2023-02-01T03:21:05;55.90;;;28.23;;
9783;SDS011;4931;44.874;-1.092;2023-02-01T03:23:35;56.40;;;28.38;;
9783;SDS011;4931;44.874;-1.092;2023-02-01T03:26:04;56.33;;;26.42;;
9783;SDS011;4931;44.874;-1.092;2023-02-01T03:28:33;48.50;;;25.13;;
9783;SDS011;4931;44.874;-1.092;2023-02-01T03:31:01;50.22;;;25.08;;
9783;SDS011;4931;44.874;-1.092;2023-02-01T03:33:27;52.72;;;25.83;;
9783;SDS011;4931;44.874;-1.092;2023-02-01T03:38:50;44.17;;;22.38;;
9783;SDS011;4931;44.874;-1.092;2023-02-01T03:41:40;47.88;;;23.45;;
9783;SDS011;4931;44.874;-1.092;2023-02-01T03:46:59;46.90;;;24.23;;
9783;SDS011;4931;44.874;-1.092;2023-02-01T03:49:34;46.22;;;22.17;;
9783;SDS011;4931;44.874;-1.092;2023-02-01T03:52:03;36.28;;;18.88;;
9783;SDS011;4931;44.874;-1.092;2023-02-01T03:54:32;36.58;;;19.92;;
9783;SDS011;4931;44.874;-1.092;2023-02-01T03:56:59;38.20;;;20.48;;
9783;SDS011;4931;44.874;-1.092;2023-02-01T03:59:29;45.45;;;21.85;;
9783;SDS011;4931;44.874;-1.092;2023-02-01T04:01:55;37.78;;;19.27;;
9783;SDS011;4931;44.874;-1.092;2023-02-01T04:04:20;35.47;;;19.63;;
9783;SDS011;4931;44.874;-1.092;2023-02-01T04:06:49;39.88;;;19.30;;
9783;SDS011;4931;44.874;-1.092;2023-02-01T04:09:15;40.28;;;17.80;;
9783;SDS011;4931;44.874;-1.092;2023-02-01T04:11:41;33.97;;;17.27;;
9783;SDS011;4931;44.874;-1.092;2023-02-01T04:14:07;31.30;;;17.27;;
9783;SDS011;4931;44.874;-1.092;2023-02-01T04:16:33;34.00;;;16.75;;
9783;SDS011;4931;44.874;-1.092;2023-02-01T04:18:59;34.70;;;16.45;;
9783;SDS011;4931;44.874;-1.092;2023-02-01T04:21:25;32.47;;;17.20;;
9783;SDS011;4931;44.874;-1.092;2023-02-01T04:23:51;28.80;;;13.63;;
9783;SDS011;4931;44.874;-1.092;2023-02-01T04:26:17;28.23;;;14.13;;
9783;SDS011;4931;44.874;-1.092;2023-02-01T04:28:43;32.15;;;15.07;;
9783;SDS011;4931;44.874;-1.092;2023-02-01T04:31:09;42.40;;;20.55;;
9783;SDS011;4931;44.874;-1.092;2023-02-01T04:33:35;46.67;;;22.00;;
9783;SDS011;4931;44.874;-1.092;2023-02-01T04:36:00;47.80;;;24.27;;
9783;SDS011;4931;44.874;-1.092;2023-02-01T04:38:26;53.03;;;23.02;;
9783;SDS011;4931;44.874;-1.092;2023-02-01T04:40:54;49.17;;;24.13;;
9783;SDS011;4931;44.874;-1.092;2023-02-01T04:43:19;45.90;;;24.13;;
9783;SDS011;4931;44.874;-1.092;2023-02-01T04:45:48;51.42;;;26.15;;
9783;SDS011;4931;44.874;-1.092;2023-02-01T04:48:15;46.20;;;24.23;;
9783;SDS011;4931;44.874;-1.092;2023-02-01T04:50:41;47.13;;;23.63;;
9783;SDS011;4931;44.874;-1.092;2023-02-01T04:53:10;50.15;;;24.13;;
9783;SDS011;4931;44.874;-1.092;2023-02-01T04:55:35;49.38;;;25.15;;
9783;SDS011;4931;44.874;-1.092;2023-02-01T04:58:01;53.80;;;28.23;;
9783;SDS011;4931;44.874;-1.092;2023-02-01T05:00:26;47.20;;;24.55;;
9783;SDS011;4931;44.874;-1.092;2023-02-01T05:02:52;44.83;;;23.77;;
9783;SDS011;4931;44.874;-1.092;2023-02-01T05:05:17;48.15;;;25.73;;
9783;SDS011;4931;44.874;-1.092;2023-02-01T05:07:42;54.58;;;28.60;;
9783;SDS011;4931;44.874;-1.092;2023-02-01T05:10:08;55.30;;;26.58;;
9783;SDS011;4931;44.874;-1.092;2023-02-01T05:12:34;59.45;;;29.05;;
9783;SDS011;4931;44.874;-1.092;2023-02-01T05:15:18;53.55;;;27.13;;
9783;SDS011;4931;44.874;-1.092;2023-02-01T05:17:43;51.90;;;25.85;;
9783;SDS011;4931;44.874;-1.092;2023-02-01T05:20:09;44.30;;;21.55;;
9783;SDS011;4931;44.874;-1.092;2023-02-01T05:22:35;34.58;;;17.73;;
9783;SDS011;4931;44.874;-1.092;2023-02-01T05:25:01;30.02;;;15.93;;
9783;SDS011;4931;44.874;-1.092;2023-02-01T05:27:28;30.40;;;13.38;;
9783;SDS011;4931;44.874;-1.092;2023-02-01T05:29:55;21.08;;;9.95;;
9783;SDS011;4931;44.874;-1.092;2023-02-01T05:32:20;17.20;;;8.88;;
9783;SDS011;4931;44.874;-1.092;2023-02-01T05:34:46;19.63;;;10.43;;
9783;SDS011;4931;44.874;-1.092;2023-02-01T05:37:11;19.10;;;10.52;;
9783;SDS011;4931;44.874;-1.092;2023-02-01T05:39:37;18.60;;;10.40;;
9783;SDS011;4931;44.874;-1.092;2023-02-01T05:42:02;18.20;;;9.50;;
9783;SDS011;4931;44.874;-1.092;2023-02-01T05:44:28;17.75;;;9.50;;
9783;SDS011;4931;44.874;-1.092;2023-02-01T05:46:53;17.17;;;9.27;;
9783;SDS011;4931;44.874;-1.092;2023-02-01T05:49:19;31.98;;;16.70;;
9783;SDS011;4931;44.874;-1.092;2023-02-01T05:51:44;53.28;;;27.42;;
9783;SDS011;4931;44.874;-1.092;2023-02-01T05:54:10;58.42;;;29.45;;
9783;SDS011;4931;44.874;-1.092;2023-02-01T05:56:35;34.28;;;18.30;;
9783;SDS011;4931;44.874;-1.092;2023-02-01T05:59:01;34.00;;;18.52;;
9783;SDS011;4931;44.874;-1.092;2023-02-01T06:01:26;49.30;;;26.73;;
9783;SDS011;4931;44.874;-1.092;2023-02-01T06:03:52;42.35;;;24.23;;
9783;SDS011;4931;44.874;-1.092;2023-02-01T06:06:17;31.83;;;18.40;;
9783;SDS011;4931;44.874;-1.092;2023-02-01T06:08:44;33.88;;;17.75;;
9783;SDS011;4931;44.874;-1.092;2023-02-01T06:11:10;26.73;;;15.25;;
9783;SDS011;4931;44.874;-1.092;2023-02-01T06:13:36;27.95;;;15.55;;
9783;SDS011;4931;44.874;-1.092;2023-02-01T06:16:03;35.05;;;18.50;;
9783;SDS011;4931;44.874;-1.092;2023-02-01T06:18:31;29.98;;;17.38;;
9783;SDS011;4931;44.874;-1.092;2023-02-01T06:20:58;33.22;;;17.48;;
9783;SDS011;4931;44.874;-1.092;2023-02-01T06:23:27;29.33;;;16.35;;
9783;SDS011;4931;44.874;-1.092;2023-02-01T06:26:05;31.63;;;16.73;;
9783;SDS011;4931;44.874;-1.092;2023-02-01T06:28:33;33.00;;;16.42;;
9783;SDS011;4931;44.874;-1.092;2023-02-01T06:31:02;29.88;;;15.18;;
9783;SDS011;4931;44.874;-1.092;2023-02-01T06:33:31;27.88;;;14.02;;
9783;SDS011;4931;44.874;-1.092;2023-02-01T06:35:58;34.70;;;16.30;;
9783;SDS011;4931;44.874;-1.092;2023-02-01T06:38:25;28.05;;;16.20;;
9783;SDS011;4931;44.874;-1.092;2023-02-01T06:40:51;30.38;;;16.95;;
9783;SDS011;4931;44.874;-1.092;2023-02-01T06:43:18;29.35;;;16.48;;
9783;SDS011;4931;44.874;-1.092;2023-02-01T06:45:44;27.00;;;15.35;;
9783;SDS011;4931;44.874;-1.092;2023-02-01T06:48:09;34.65;;;16.83;;
9783;SDS011;4931;44.874;-1.092;2023-02-01T06:50:35;29.45;;;16.30;;
9783;SDS011;4931;44.874;-1.092;2023-02-01T06:53:00;24.40;;;15.02;;
9783;SDS011;4931;44.874;-1.092;2023-02-01T06:55:26;28.42;;;16.45;;
9783;SDS011;4931;44.874;-1.092;2023-02-01T06:57:55;24.70;;;14.18;;
9783;SDS011;4931;44.874;-1.092;2023-02-01T07:00:21;54.65;;;26.58;;
9783;SDS011;4931;44.874;-1.092;2023-02-01T07:02:47;50.03;;;24.88;;
9783;SDS011;4931;44.874;-1.092;2023-02-01T07:05:13;40.63;;;22.67;;
9783;SDS011;4931;44.874;-1.092;2023-02-01T07:07:39;31.25;;;16.83;;
9783;SDS011;4931;44.874;-1.092;2023-02-01T07:10:04;41.88;;;20.60;;
9783;SDS011;4931;44.874;-1.092;2023-02-01T07:12:30;41.03;;;21.98;;
9783;SDS011;4931;44.874;-1.092;2023-02-01T07:14:56;28.90;;;16.15;;
9783;SDS011;4931;44.874;-1.092;2023-02-01T07:17:21;23.35;;;13.32;;
9783;SDS011;4931;44.874;-1.092;2023-02-01T07:19:47;23.30;;;13.25;;
9783;SDS011;4931;44.874;-1.092;2023-02-01T07:22:15;23.67;;;14.88;;
9783;SDS011;4931;44.874;-1.092;2023-02-01T07:24:41;26.77;;;15.85;;
9783;SDS011;4931;44.874;-1.092;2023-02-01T07:27:07;25.70;;;14.75;;
9783;SDS011;4931;44.874;-1.092;2023-02-01T07:29:32;25.77;;;14.52;;
9783;SDS011;4931;44.874;-1.092;2023-02-01T07:31:58;20.65;;;13.38;;
9783;SDS011;4931;44.874;-1.092;2023-02-01T07:34:23;20.50;;;13.35;;
9783;SDS011;4931;44.874;-1.092;2023-02-01T07:36:49;28.83;;;14.88;;
9783;SDS011;4931;44.874;-1.092;2023-02-01T07:39:14;30.65;;;16.23;;
9783;SDS011;4931;44.874;-1.092;2023-02-01T07:41:40;30.33;;;15.20;;
9783;SDS011;4931;44.874;-1.092;2023-02-01T07:44:05;30.02;;;16.23;;
9783;SDS011;4931;44.874;-1.092;2023-02-01T07:46:30;36.15;;;20.90;;
9783;SDS011;4931;44.874;-1.092;2023-02-01T07:48:56;38.85;;;20.55;;
9783;SDS011;4931;44.874;-1.092;2023-02-01T07:51:22;41.17;;;21.08;;
9783;SDS011;4931;44.874;-1.092;2023-02-01T07:53:47;38.95;;;21.30;;
9783;SDS011;4931;44.874;-1.092;2023-02-01T07:56:16;42.17;;;21.33;;
9783;SDS011;4931;44.874;-1.092;2023-02-01T08:01:13;39.55;;;20.83;;
9783;SDS011;4931;44.874;-1.092;2023-02-01T08:03:50;48.15;;;25.70;;
9783;SDS011;4931;44.874;-1.092;2023-02-01T08:06:18;46.88;;;26.52;;
9783;SDS011;4931;44.874;-1.092;2023-02-01T08:08:45;51.15;;;27.63;;
9783;SDS011;4931;44.874;-1.092;2023-02-01T08:11:12;47.38;;;27.80;;
9783;SDS011;4931;44.874;-1.092;2023-02-01T08:13:38;45.67;;;25.15;;
9783;SDS011;4931;44.874;-1.092;2023-02-01T08:16:05;39.05;;;23.27;;
9783;SDS011;4931;44.874;-1.092;2023-02-01T08:18:31;42.35;;;23.70;;
9783;SDS011;4931;44.874;-1.092;2023-02-01T08:21:01;44.78;;;23.10;;
9783;SDS011;4931;44.874;-1.092;2023-02-01T08:23:48;28.35;;;18.52;;
9783;SDS011;4931;44.874;-1.092;2023-02-01T08:26:17;31.10;;;16.73;;
9783;SDS011;4931;44.874;-1.092;2023-02-01T08:28:56;29.35;;;15.95;;
9783;SDS011;4931;44.874;-1.092;2023-02-01T08:31:25;35.75;;;17.52;;
9783;SDS011;4931;44.874;-1.092;2023-02-01T08:33:56;26.33;;;14.95;;
9783;SDS011;4931;44.874;-1.092;2023-02-01T08:36:23;25.98;;;15.25;;
9783;SDS011;4931;44.874;-1.092;2023-02-01T08:38:50;30.75;;;15.13;;
9783;SDS011;4931;44.874;-1.092;2023-02-01T08:41:16;26.08;;;15.05;;
9783;SDS011;4931;44.874;-1.092;2023-02-01T08:43:44;26.25;;;13.77;;
9783;SDS011;4931;44.874;-1.092;2023-02-01T08:46:10;32.88;;;17.77;;
9783;SDS011;4931;44.874;-1.092;2023-02-01T08:48:37;36.95;;;19.30;;
9783;SDS011;4931;44.874;-1.092;2023-02-01T08:51:04;42.05;;;24.40;;
9783;SDS011;4931;44.874;-1.092;2023-02-01T08:53:31;47.60;;;32.25;;
9783;SDS011;4931;44.874;-1.092;2023-02-01T08:55:57;28.27;;;14.82;;
9783;SDS011;4931;44.874;-1.092;2023-02-01T08:58:22;28.83;;;11.43;;
9783;SDS011;4931;44.874;-1.092;2023-02-01T09:00:48;31.70;;;18.23;;
9783;SDS011;4931;44.874;-1.092;2023-02-01T09:03:14;38.80;;;24.05;;
9783;SDS011;4931;44.874;-1.092;2023-02-01T09:05:40;38.15;;;19.35;;
9783;SDS011;4931;44.874;-1.092;2023-02-01T09:08:05;28.35;;;14.35;;
9783;SDS011;4931;44.874;-1.092;2023-02-01T09:10:31;29.13;;;13.73;;
9783;SDS011;4931;44.874;-1.092;2023-02-01T09:12:57;32.55;;;17.60;;
9783;SDS011;4931;44.874;-1.092;2023-02-01T09:15:23;38.00;;;19.25;;
9783;SDS011;4931;44.874;-1.092;2023-02-01T09:17:48;30.42;;;13.40;;
9783;SDS011;4931;44.874;-1.092;2023-02-01T09:20:14;24.23;;;11.18;;
9783;SDS011;4931;44.874;-1.092;2023-02-01T09:22:40;38.90;;;16.58;;
9783;SDS011;4931;44.874;-1.092;2023-02-01T09:25:06;47.55;;;19.52;;
9783;SDS011;4931;44.874;-1.092;2023-02-01T09:27:32;27.63;;;11.18;;
9783;SDS011;4931;44.874;-1.092;2023-02-01T09:29:58;24.88;;;11.48;;
9783;SDS011;4931;44.874;-1.092;2023-02-01T09:32:23;23.33;;;10.05;;
9783;SDS011;4931;44.874;-1.092;2023-02-01T09:34:50;36.00;;;15.13;;
9783;SDS011;4931;44.874;-1.092;2023-02-01T09:37:16;33.58;;;12.23;;
9783;SDS011;4931;44.874;-1.092;2023-02-01T09:39:42;29.30;;;10.38;;
9783;SDS011;4931;44.874;-1.092;2023-02-01T09:42:19;27.27;;;8.70;;
9783;SDS011;4931;44.874;-1.092;2023-02-01T09:47:30;25.33;;;9.38;;
9783;SDS011;4931;44.874;-1.092;2023-02-01T09:50:08;23.30;;;8.75;;
9783;SDS011;4931;44.874;-1.092;2023-02-01T09:56:02;27.52;;;12.05;;
9783;SDS011;4931;44.874;-1.092;2023-02-01T09:58:27;21.33;;;4.97;;
9783;SDS011;4931;44.874;-1.092;2023-02-01T10:01:03;17.58;;;4.18;;
9783;SDS011;4931;44.874;-1.092;2023-02-01T10:03:32;16.25;;;5.22;;
9783;SDS011;4931;44.874;-1.092;2023-02-01T10:15:19;19.50;;;6.43;;
9783;SDS011;4931;44.874;-1.092;2023-02-01T10:23:06;17.77;;;4.22;;
9783;SDS011;4931;44.874;-1.092;2023-02-01T10:25:53;19.08;;;6.50;;
9783;SDS011;4931;44.874;-1.092;2023-02-01T10:28:21;21.10;;;7.03;;
9783;SDS011;4931;44.874;-1.092;2023-02-01T10:30:49;22.55;;;7.13;;
9783;SDS011;4931;44.874;-1.092;2023-02-01T10:33:24;18.55;;;4.65;;
9783;SDS011;4931;44.874;-1.092;2023-02-01T10:36:29;17.83;;;4.10;;
9783;SDS011;4931;44.874;-1.092;2023-02-01T10:38:49;21.40;;;4.88;;
9783;SDS011;4931;44.874;-1.092;2023-02-01T10:41:16;14.05;;;3.95;;
9783;SDS011;4931;44.874;-1.092;2023-02-01T10:43:45;16.50;;;4.20;;
9783;SDS011;4931;44.874;-1.092;2023-02-01T10:46:14;20.23;;;4.10;;
9783;SDS011;4931;44.874;-1.092;2023-02-01T10:48:41;24.90;;;4.35;;
9783;SDS011;4931;44.874;-1.092;2023-02-01T10:51:10;12.52;;;3.28;;
9783;SDS011;4931;44.874;-1.092;2023-02-01T10:53:49;18.08;;;5.18;;
9783;SDS011;4931;44.874;-1.092;2023-02-01T10:56:25;23.17;;;5.60;;
9783;SDS011;4931;44.874;-1.092;2023-02-01T10:58:59;20.08;;;4.72;;
9783;SDS011;4931;44.874;-1.092;2023-02-01T11:01:39;15.93;;;4.15;;
9783;SDS011;4931;44.874;-1.092;2023-02-01T11:04:16;17.83;;;3.67;;
9783;SDS011;4931;44.874;-1.092;2023-02-01T11:06:52;14.40;;;3.10;;
9783;SDS011;4931;44.874;-1.092;2023-02-01T11:09:29;22.30;;;3.85;;
9783;SDS011;4931;44.874;-1.092;2023-02-01T11:11:59;19.30;;;4.80;;
9783;SDS011;4931;44.874;-1.092;2023-02-01T11:16:54;19.75;;;8.63;;
9783;SDS011;4931;44.874;-1.092;2023-02-01T11:19:23;20.80;;;7.35;;
9783;SDS011;4931;44.874;-1.092;2023-02-01T11:21:49;17.77;;;4.53;;
9783;SDS011;4931;44.874;-1.092;2023-02-01T11:26:49;21.95;;;4.50;;
9783;SDS011;4931;44.874;-1.092;2023-02-01T11:29:16;16.98;;;4.30;;
9783;SDS011;4931;44.874;-1.092;2023-02-01T11:31:45;19.25;;;5.57;;
9783;SDS011;4931;44.874;-1.092;2023-02-01T11:34:15;19.65;;;3.58;;
9783;SDS011;4931;44.874;-1.092;2023-02-01T11:36:45;16.20;;;3.58;;
9783;SDS011;4931;44.874;-1.092;2023-02-01T11:41:41;13.40;;;3.45;;
9783;SDS011;4931;44.874;-1.092;2023-02-01T11:49:48;14.90;;;2.35;;
9783;SDS011;4931;44.874;-1.092;2023-02-01T11:58:14;17.00;;;3.20;;
9783;SDS011;4931;44.874;-1.092;2023-02-01T12:06:29;9.55;;;1.80;;
9783;SDS011;4931;44.874;-1.092;2023-02-01T12:09:06;10.38;;;1.65;;
9783;SDS011;4931;44.874;-1.092;2023-02-01T12:19:55;9.55;;;1.85;;
9783;SDS011;4931;44.874;-1.092;2023-02-01T12:22:49;8.20;;;1.52;;
9783;SDS011;4931;44.874;-1.092;2023-02-01T12:36:14;6.85;;;1.50;;
9783;SDS011;4931;44.874;-1.092;2023-02-01T12:46:24;10.70;;;1.83;;
9783;SDS011;4931;44.874;-1.092;2023-02-01T12:51:47;14.27;;;3.10;;
9783;SDS011;4931;44.874;-1.092;2023-02-01T12:54:19;9.82;;;2.40;;
9783;SDS011;4931;44.874;-1.092;2023-02-01T12:57:12;5.57;;;2.13;;
9783;SDS011;4931;44.874;-1.092;2023-02-01T12:59:55;9.18;;;1.50;;
9783;SDS011;4931;44.874;-1.092;2023-02-01T13:02:39;5.72;;;1.35;;
9783;SDS011;4931;44.874;-1.092;2023-02-01T13:08:08;6.93;;;1.70;;
9783;SDS011;4931;44.874;-1.092;2023-02-01T13:10:43;4.07;;;1.15;;
9783;SDS011;4931;44.874;-1.092;2023-02-01T13:18:41;4.57;;;1.00;;
9783;SDS011;4931;44.874;-1.092;2023-02-01T13:21:18;3.00;;;1.40;;
9783;SDS011;4931;44.874;-1.092;2023-02-01T13:23:52;5.78;;;1.10;;
9783;SDS011;4931;44.874;-1.092;2023-02-01T13:26:18;5.50;;;1.45;;
9783;SDS011;4931;44.874;-1.092;2023-02-01T13:36:59;3.45;;;0.93;;
9783;SDS011;4931;44.874;-1.092;2023-02-01T13:41:55;4.05;;;0.90;;
9783;SDS011;4931;44.874;-1.092;2023-02-01T13:46:58;3.28;;;0.90;;
9783;SDS011;4931;44.874;-1.092;2023-02-01T13:49:28;2.60;;;0.80;;
9783;SDS011;4931;44.874;-1.092;2023-02-01T13:51:57;2.85;;;0.90;;
9783;SDS011;4931;44.874;-1.092;2023-02-01T13:54:28;3.72;;;0.82;;
9783;SDS011;4931;44.874;-1.092;2023-02-01T13:56:57;4.13;;;0.80;;
9783;SDS011;4931;44.874;-1.092;2023-02-01T14:26:21;9.70;;;1.50;;
9783;SDS011;4931;44.874;-1.092;2023-02-01T14:28:54;3.10;;;0.80;;
9783;SDS011;4931;44.874;-1.092;2023-02-01T14:33:57;4.40;;;0.80;;
9783;SDS011;4931;44.874;-1.092;2023-02-01T14:36:25;3.75;;;0.88;;
9783;SDS011;4931;44.874;-1.092;2023-02-01T14:38:52;4.07;;;1.05;;
9783;SDS011;4931;44.874;-1.092;2023-02-01T14:41:39;5.03;;;1.13;;
9783;SDS011;4931;44.874;-1.092;2023-02-01T14:52:45;4.32;;;1.10;;
9783;SDS011;4931;44.874;-1.092;2023-02-01T14:55:25;4.35;;;0.90;;
9783;SDS011;4931;44.874;-1.092;2023-02-01T14:57:57;3.13;;;1.10;;
9783;SDS011;4931;44.874;-1.092;2023-02-01T15:00:28;7.53;;;1.42;;
9783;SDS011;4931;44.874;-1.092;2023-02-01T15:03:00;5.88;;;1.50;;
9783;SDS011;4931;44.874;-1.092;2023-02-01T15:05:37;13.40;;;2.67;;
9783;SDS011;4931;44.874;-1.092;2023-02-01T15:08:04;22.55;;;5.00;;
9783;SDS011;4931;44.874;-1.092;2023-02-01T15:10:39;18.67;;;4.63;;
9783;SDS011;4931;44.874;-1.092;2023-02-01T15:15:42;13.65;;;2.70;;
9783;SDS011;4931;44.874;-1.092;2023-02-01T15:18:14;14.20;;;2.72;;
9783;SDS011;4931;44.874;-1.092;2023-02-01T15:20:42;21.55;;;3.15;;
9783;SDS011;4931;44.874;-1.092;2023-02-01T15:23:16;16.67;;;2.97;;
9783;SDS011;4931;44.874;-1.092;2023-02-01T15:25:44;14.45;;;2.85;;
9783;SDS011;4931;44.874;-1.092;2023-02-01T15:28:14;24.77;;;2.97;;
9783;SDS011;4931;44.874;-1.092;2023-02-01T15:30:51;20.45;;;3.42;;
9783;SDS011;4931;44.874;-1.092;2023-02-01T15:33:24;18.90;;;3.00;;
9783;SDS011;4931;44.874;-1.092;2023-02-01T15:35:52;21.08;;;3.00;;
9783;SDS011;4931;44.874;-1.092;2023-02-01T15:38:20;19.40;;;3.38;;
9783;SDS011;4931;44.874;-1.092;2023-02-01T15:46:33;16.88;;;3.10;;
9783;SDS011;4931;44.874;-1.092;2023-02-01T15:49:03;13.90;;;2.90;;
9783;SDS011;4931;44.874;-1.092;2023-02-01T15:51:30;13.95;;;3.25;;
9783;SDS011;4931;44.874;-1.092;2023-02-01T15:54:04;16.25;;;2.92;;
9783;SDS011;4931;44.874;-1.092;2023-02-01T15:56:36;13.15;;;2.67;;
9783;SDS011;4931;44.874;-1.092;2023-02-01T15:59:06;20.08;;;3.17;;
9783;SDS011;4931;44.874;-1.092;2023-02-01T16:01:48;18.02;;;3.13;;
9783;SDS011;4931;44.874;-1.092;2023-02-01T16:06:57;12.73;;;2.42;;
9783;SDS011;4931;44.874;-1.092;2023-02-01T16:09:36;14.43;;;2.53;;
9783;SDS011;4931;44.874;-1.092;2023-02-01T16:15:00;15.50;;;2.50;;
9783;SDS011;4931;44.874;-1.092;2023-02-01T16:17:25;12.82;;;2.83;;
9783;SDS011;4931;44.874;-1.092;2023-02-01T16:19:51;13.45;;;2.47;;
9783;SDS011;4931;44.874;-1.092;2023-02-01T16:22:17;16.52;;;2.55;;
9783;SDS011;4931;44.874;-1.092;2023-02-01T16:24:42;15.73;;;2.75;;
9783;SDS011;4931;44.874;-1.092;2023-02-01T16:27:07;14.85;;;2.45;;
9783;SDS011;4931;44.874;-1.092;2023-02-01T16:29:33;13.32;;;2.60;;
9783;SDS011;4931;44.874;-1.092;2023-02-01T16:31:58;15.48;;;2.95;;
9783;SDS011;4931;44.874;-1.092;2023-02-01T16:34:24;19.17;;;2.47;;
9783;SDS011;4931;44.874;-1.092;2023-02-01T16:36:50;11.57;;;2.65;;
9783;SDS011;4931;44.874;-1.092;2023-02-01T16:39:17;15.27;;;2.33;;
9783;SDS011;4931;44.874;-1.092;2023-02-01T16:41:44;16.50;;;2.70;;
9783;SDS011;4931;44.874;-1.092;2023-02-01T16:44:12;14.77;;;2.30;;
9783;SDS011;4931;44.874;-1.092;2023-02-01T16:46:39;11.57;;;2.50;;
9783;SDS011;4931;44.874;-1.092;2023-02-01T16:49:21;16.88;;;2.53;;
9783;SDS011;4931;44.874;-1.092;2023-02-01T16:51:48;15.05;;;2.40;;
9783;SDS011;4931;44.874;-1.092;2023-02-01T16:54:17;21.63;;;2.88;;
9783;SDS011;4931;44.874;-1.092;2023-02-01T16:56:43;13.02;;;2.25;;
9783;SDS011;4931;44.874;-1.092;2023-02-01T16:59:10;14.68;;;2.67;;
9783;SDS011;4931;44.874;-1.092;2023-02-01T17:01:36;20.40;;;3.17;;
9783;SDS011;4931;44.874;-1.092;2023-02-01T17:04:06;18.33;;;2.80;;
9783;SDS011;4931;44.874;-1.092;2023-02-01T17:06:31;17.38;;;2.70;;
9783;SDS011;4931;44.874;-1.092;2023-02-01T17:08:58;19.60;;;3.17;;
9783;SDS011;4931;44.874;-1.092;2023-02-01T17:11:25;20.42;;;3.75;;
9783;SDS011;4931;44.874;-1.092;2023-02-01T17:13:52;17.42;;;3.55;;
9783;SDS011;4931;44.874;-1.092;2023-02-01T17:18:43;22.20;;;3.67;;
9783;SDS011;4931;44.874;-1.092;2023-02-01T17:21:11;17.65;;;3.45;;
9783;SDS011;4931;44.874;-1.092;2023-02-01T17:23:37;17.95;;;3.53;;
9783;SDS011;4931;44.874;-1.092;2023-02-01T17:26:02;21.63;;;3.40;;
9783;SDS011;4931;44.874;-1.092;2023-02-01T17:28:28;18.88;;;3.58;;
9783;SDS011;4931;44.874;-1.092;2023-02-01T17:30:54;14.40;;;3.20;;
9783;SDS011;4931;44.874;-1.092;2023-02-01T17:33:24;16.17;;;3.33;;
9783;SDS011;4931;44.874;-1.092;2023-02-01T17:35:53;19.83;;;3.63;;
9783;SDS011;4931;44.874;-1.092;2023-02-01T17:38:20;22.33;;;3.42;;
9783;SDS011;4931;44.874;-1.092;2023-02-01T17:40:45;22.85;;;3.35;;
9783;SDS011;4931;44.874;-1.092;2023-02-01T17:43:12;18.48;;;3.42;;
9783;SDS011;4931;44.874;-1.092;2023-02-01T17:45:40;23.75;;;4.40;;
9783;SDS011;4931;44.874;-1.092;2023-02-01T17:48:14;20.85;;;3.90;;
9783;SDS011;4931;44.874;-1.092;2023-02-01T17:50:39;20.40;;;4.10;;
9783;SDS011;4931;44.874;-1.092;2023-02-01T17:53:05;22.38;;;3.95;;
9783;SDS011;4931;44.874;-1.092;2023-02-01T17:55:33;23.33;;;4.07;;
9783;SDS011;4931;44.874;-1.092;2023-02-01T17:58:01;28.02;;;6.32;;
9783;SDS011;4931;44.874;-1.092;2023-02-01T18:00:26;23.40;;;4.25;;
9783;SDS011;4931;44.874;-1.092;2023-02-01T18:02:52;18.10;;;4.65;;
9783;SDS011;4931;44.874;-1.092;2023-02-01T18:05:22;26.10;;;4.97;;
9783;SDS011;4931;44.874;-1.092;2023-02-01T18:07:50;21.05;;;5.13;;
9783;SDS011;4931;44.874;-1.092;2023-02-01T18:10:16;20.52;;;4.82;;
9783;SDS011;4931;44.874;-1.092;2023-02-01T18:12:41;20.20;;;6.43;;
9783;SDS011;4931;44.874;-1.092;2023-02-01T18:15:17;22.58;;;6.10;;
9783;SDS011;4931;44.874;-1.092;2023-02-01T18:17:45;23.20;;;5.57;;
9783;SDS011;4931;44.874;-1.092;2023-02-01T18:20:15;26.67;;;6.07;;